sensor_id;sensor_type;location;lat;lon;timestamp;temperature;humidity
420;DHT22;42600;54.408;13.016;2022-11-14T00:02:03;10.20;92.70
420;DHT22;42600;54.408;13.016;2022-11-14T00:04:30;10.20;92.70
420;DHT22;42600;54.408;13.016;2022-11-14T00:06:56;10.20;92.70
420;DHT22;42600;54.408;13.016;2022-11-14T00:09:24;10.20;92.70
420;DHT22;42600;54.408;13.016;2022-11-14T00:11:50;10.20;92.70
420;DHT22;42600;54.408;13.016;2022-11-14T00:14:17;10.20;92.70
420;DHT22;42600;54.408;13.016;2022-11-14T00:16:45;10.20;92.70
420;DHT22;42600;54.408;13.016;2022-11-14T00:19:11;10.20;92.70
420;DHT22;42600;54.408;13.016;2022-11-14T00:21:38;10.20;92.70
420;DHT22;42600;54.408;13.016;2022-11-14T00:24:05;10.20;92.70
420;DHT22;42600;54.408;13.016;2022-11-14T00:26:31;10.20;92.70
420;DHT22;42600;54.408;13.016;2022-11-14T00:28:58;10.20;92.70
420;DHT22;42600;54.408;13.016;2022-11-14T00:31:25;10.10;92.70
420;DHT22;42600;54.408;13.016;2022-11-14T00:33:52;10.10;92.70
420;DHT22;42600;54.408;13.016;2022-11-14T00:36:19;10.10;92.70
420;DHT22;42600;54.408;13.016;2022-11-14T00:38:46;10.10;92.70
420;DHT22;42600;54.408;13.016;2022-11-14T00:41:12;10.10;92.70
420;DHT22;42600;54.408;13.016;2022-11-14T00:43:39;10.10;92.70
420;DHT22;42600;54.408;13.016;2022-11-14T00:46:05;10.10;92.70
420;DHT22;42600;54.408;13.016;2022-11-14T00:48:32;10.00;92.70
420;DHT22;42600;54.408;13.016;2022-11-14T00:51:00;10.00;92.70
420;DHT22;42600;54.408;13.016;2022-11-14T00:53:26;10.00;92.70
420;DHT22;42600;54.408;13.016;2022-11-14T00:55:53;10.00;92.70
420;DHT22;42600;54.408;13.016;2022-11-14T00:58:19;10.00;92.70
420;DHT22;42600;54.408;13.016;2022-11-14T01:00:46;9.90;92.70
420;DHT22;42600;54.408;13.016;2022-11-14T01:03:13;9.90;92.70
420;DHT22;42600;54.408;13.016;2022-11-14T01:05:40;9.90;92.70
420;DHT22;42600;54.408;13.016;2022-11-14T01:08:09;9.90;92.70
420;DHT22;42600;54.408;13.016;2022-11-14T01:10:38;9.90;92.70
420;DHT22;42600;54.408;13.016;2022-11-14T01:13:05;9.80;92.70
420;DHT22;42600;54.408;13.016;2022-11-14T01:15:31;9.80;92.70
420;DHT22;42600;54.408;13.016;2022-11-14T01:17:58;9.80;92.70
420;DHT22;42600;54.408;13.016;2022-11-14T01:20:24;9.80;92.70
420;DHT22;42600;54.408;13.016;2022-11-14T01:22:51;9.70;92.70
420;DHT22;42600;54.408;13.016;2022-11-14T01:25:19;9.80;92.70
420;DHT22;42600;54.408;13.016;2022-11-14T01:27:45;9.70;92.70
420;DHT22;42600;54.408;13.016;2022-11-14T01:30:12;9.70;92.70
420;DHT22;42600;54.408;13.016;2022-11-14T01:32:39;9.70;92.70
420;DHT22;42600;54.408;13.016;2022-11-14T01:35:06;9.70;92.70
420;DHT22;42600;54.408;13.016;2022-11-14T01:37:33;9.60;92.70
420;DHT22;42600;54.408;13.016;2022-11-14T01:39:59;9.60;92.70
420;DHT22;42600;54.408;13.016;2022-11-14T01:42:27;9.50;92.70
420;DHT22;42600;54.408;13.016;2022-11-14T01:44:54;9.50;92.70
420;DHT22;42600;54.408;13.016;2022-11-14T01:47:24;9.40;92.70
420;DHT22;42600;54.408;13.016;2022-11-14T01:49:53;9.40;92.70
420;DHT22;42600;54.408;13.016;2022-11-14T01:52:22;9.40;92.70
420;DHT22;42600;54.408;13.016;2022-11-14T01:54:52;9.30;92.70
420;DHT22;42600;54.408;13.016;2022-11-14T01:57:22;9.30;92.70
420;DHT22;42600;54.408;13.016;2022-11-14T01:59:54;9.20;92.70
420;DHT22;42600;54.408;13.016;2022-11-14T02:02:23;9.20;92.70
420;DHT22;42600;54.408;13.016;2022-11-14T02:04:54;9.10;92.70
420;DHT22;42600;54.408;13.016;2022-11-14T02:07:23;9.10;92.70
420;DHT22;42600;54.408;13.016;2022-11-14T02:09:50;9.10;92.70
420;DHT22;42600;54.408;13.016;2022-11-14T02:12:18;9.10;92.70
420;DHT22;42600;54.408;13.016;2022-11-14T02:14:48;9.00;92.70
420;DHT22;42600;54.408;13.016;2022-11-14T02:17:18;9.00;92.70
420;DHT22;42600;54.408;13.016;2022-11-14T02:19:48;9.00;92.70
420;DHT22;42600;54.408;13.016;2022-11-14T02:22:16;9.00;92.70
420;DHT22;42600;54.408;13.016;2022-11-14T02:24:43;9.00;92.70
420;DHT22;42600;54.408;13.016;2022-11-14T02:27:10;8.90;92.70
420;DHT22;42600;54.408;13.016;2022-11-14T02:29:37;8.90;92.70
420;DHT22;42600;54.408;13.016;2022-11-14T02:32:04;8.90;92.70
420;DHT22;42600;54.408;13.016;2022-11-14T02:34:31;8.90;92.70
420;DHT22;42600;54.408;13.016;2022-11-14T02:36:58;8.90;92.70
420;DHT22;42600;54.408;13.016;2022-11-14T02:39:26;8.90;92.70
420;DHT22;42600;54.408;13.016;2022-11-14T02:41:53;8.90;92.70
420;DHT22;42600;54.408;13.016;2022-11-14T02:44:20;8.80;92.70
420;DHT22;42600;54.408;13.016;2022-11-14T02:46:46;8.80;92.70
420;DHT22;42600;54.408;13.016;2022-11-14T02:49:13;8.80;92.70
420;DHT22;42600;54.408;13.016;2022-11-14T02:51:40;8.70;92.70
420;DHT22;42600;54.408;13.016;2022-11-14T02:54:06;8.60;92.70
420;DHT22;42600;54.408;13.016;2022-11-14T02:56:34;8.60;92.70
420;DHT22;42600;54.408;13.016;2022-11-14T02:59:01;8.60;92.70
420;DHT22;42600;54.408;13.016;2022-11-14T03:01:27;8.60;92.70
420;DHT22;42600;54.408;13.016;2022-11-14T03:03:54;8.50;92.70
420;DHT22;42600;54.408;13.016;2022-11-14T03:06:21;8.50;92.70
420;DHT22;42600;54.408;13.016;2022-11-14T03:08:47;8.40;92.70
420;DHT22;42600;54.408;13.016;2022-11-14T03:11:14;8.40;92.70
420;DHT22;42600;54.408;13.016;2022-11-14T03:13:42;8.40;92.70
420;DHT22;42600;54.408;13.016;2022-11-14T03:16:11;8.30;92.70
420;DHT22;42600;54.408;13.016;2022-11-14T03:18:38;8.30;92.70
420;DHT22;42600;54.408;13.016;2022-11-14T03:21:06;8.30;92.70
420;DHT22;42600;54.408;13.016;2022-11-14T03:23:32;8.30;92.70
420;DHT22;42600;54.408;13.016;2022-11-14T03:26:00;8.30;92.70
420;DHT22;42600;54.408;13.016;2022-11-14T03:28:27;8.20;92.70
420;DHT22;42600;54.408;13.016;2022-11-14T03:30:55;8.20;92.70
420;DHT22;42600;54.408;13.016;2022-11-14T03:33:21;8.20;92.70
420;DHT22;42600;54.408;13.016;2022-11-14T03:35:48;8.20;92.70
420;DHT22;42600;54.408;13.016;2022-11-14T03:38:15;8.20;92.70
420;DHT22;42600;54.408;13.016;2022-11-14T03:40:42;8.20;92.70
420;DHT22;42600;54.408;13.016;2022-11-14T03:43:09;8.20;92.70
420;DHT22;42600;54.408;13.016;2022-11-14T03:45:37;8.20;92.70
420;DHT22;42600;54.408;13.016;2022-11-14T03:48:05;8.20;92.70
420;DHT22;42600;54.408;13.016;2022-11-14T03:50:32;8.20;92.70
420;DHT22;42600;54.408;13.016;2022-11-14T03:52:58;8.10;92.70
420;DHT22;42600;54.408;13.016;2022-11-14T03:55:25;8.00;92.70
420;DHT22;42600;54.408;13.016;2022-11-14T03:57:52;8.10;92.70
420;DHT22;42600;54.408;13.016;2022-11-14T04:00:19;8.10;92.70
420;DHT22;42600;54.408;13.016;2022-11-14T04:02:45;8.00;92.70
420;DHT22;42600;54.408;13.016;2022-11-14T04:05:14;8.00;92.70
420;DHT22;42600;54.408;13.016;2022-11-14T04:07:41;8.00;92.70
420;DHT22;42600;54.408;13.016;2022-11-14T04:10:07;8.00;92.70
420;DHT22;42600;54.408;13.016;2022-11-14T04:12:34;8.00;92.70
420;DHT22;42600;54.408;13.016;2022-11-14T04:15:01;7.90;92.70
420;DHT22;42600;54.408;13.016;2022-11-14T04:17:27;7.90;92.70
420;DHT22;42600;54.408;13.016;2022-11-14T04:19:54;7.90;92.70
420;DHT22;42600;54.408;13.016;2022-11-14T04:22:22;7.90;92.70
420;DHT22;42600;54.408;13.016;2022-11-14T04:24:48;7.80;92.70
420;DHT22;42600;54.408;13.016;2022-11-14T04:27:15;7.80;92.70
420;DHT22;42600;54.408;13.016;2022-11-14T04:29:42;7.80;92.70
420;DHT22;42600;54.408;13.016;2022-11-14T04:32:08;7.80;92.70
420;DHT22;42600;54.408;13.016;2022-11-14T04:34:35;7.80;92.70
420;DHT22;42600;54.408;13.016;2022-11-14T04:37:01;7.70;92.70
420;DHT22;42600;54.408;13.016;2022-11-14T04:39:29;7.70;92.70
420;DHT22;42600;54.408;13.016;2022-11-14T04:41:56;7.70;92.70
420;DHT22;42600;54.408;13.016;2022-11-14T04:44:22;7.80;92.70
420;DHT22;42600;54.408;13.016;2022-11-14T04:46:49;7.70;92.70
420;DHT22;42600;54.408;13.016;2022-11-14T04:49:16;7.70;92.70
420;DHT22;42600;54.408;13.016;2022-11-14T04:51:42;7.70;92.70
420;DHT22;42600;54.408;13.016;2022-11-14T04:54:09;7.60;92.70
420;DHT22;42600;54.408;13.016;2022-11-14T04:56:36;7.60;92.70
420;DHT22;42600;54.408;13.016;2022-11-14T04:59:03;7.50;92.70
420;DHT22;42600;54.408;13.016;2022-11-14T05:01:30;7.50;92.70
420;DHT22;42600;54.408;13.016;2022-11-14T05:03:56;7.50;92.70
420;DHT22;42600;54.408;13.016;2022-11-14T05:06:23;7.50;92.70
420;DHT22;42600;54.408;13.016;2022-11-14T05:08:49;7.50;92.70
420;DHT22;42600;54.408;13.016;2022-11-14T05:11:17;7.50;92.70
420;DHT22;42600;54.408;13.016;2022-11-14T05:13:46;7.50;92.70
420;DHT22;42600;54.408;13.016;2022-11-14T05:16:13;7.40;92.70
420;DHT22;42600;54.408;13.016;2022-11-14T05:18:39;7.40;92.70
420;DHT22;42600;54.408;13.016;2022-11-14T05:21:06;7.40;92.70
420;DHT22;42600;54.408;13.016;2022-11-14T05:23:32;7.40;92.70
420;DHT22;42600;54.408;13.016;2022-11-14T05:26:00;7.40;92.70
420;DHT22;42600;54.408;13.016;2022-11-14T05:28:27;7.40;92.70
420;DHT22;42600;54.408;13.016;2022-11-14T05:31:01;7.30;92.70
420;DHT22;42600;54.408;13.016;2022-11-14T05:33:28;7.30;92.70
420;DHT22;42600;54.408;13.016;2022-11-14T05:35:55;7.30;92.70
420;DHT22;42600;54.408;13.016;2022-11-14T05:38:21;7.20;92.70
420;DHT22;42600;54.408;13.016;2022-11-14T05:40:48;7.30;92.70
420;DHT22;42600;54.408;13.016;2022-11-14T05:43:14;7.20;92.70
420;DHT22;42600;54.408;13.016;2022-11-14T05:45:41;7.20;92.70
420;DHT22;42600;54.408;13.016;2022-11-14T05:48:09;7.30;92.70
420;DHT22;42600;54.408;13.016;2022-11-14T05:50:35;7.30;92.70
420;DHT22;42600;54.408;13.016;2022-11-14T05:53:02;7.30;92.70
420;DHT22;42600;54.408;13.016;2022-11-14T05:55:28;7.30;92.70
420;DHT22;42600;54.408;13.016;2022-11-14T05:57:57;7.30;92.70
420;DHT22;42600;54.408;13.016;2022-11-14T06:00:23;7.30;92.70
420;DHT22;42600;54.408;13.016;2022-11-14T06:02:51;7.30;92.70
420;DHT22;42600;54.408;13.016;2022-11-14T06:05:19;7.20;92.70
420;DHT22;42600;54.408;13.016;2022-11-14T06:07:46;7.20;92.70
420;DHT22;42600;54.408;13.016;2022-11-14T06:10:13;7.30;92.70
420;DHT22;42600;54.408;13.016;2022-11-14T06:12:39;7.30;92.70
420;DHT22;42600;54.408;13.016;2022-11-14T06:15:07;7.30;92.70
420;DHT22;42600;54.408;13.016;2022-11-14T06:17:33;7.30;92.70
420;DHT22;42600;54.408;13.016;2022-11-14T06:20:00;7.30;92.70
420;DHT22;42600;54.408;13.016;2022-11-14T06:22:28;7.30;92.70
420;DHT22;42600;54.408;13.016;2022-11-14T06:24:54;7.30;92.70
420;DHT22;42600;54.408;13.016;2022-11-14T06:27:21;7.30;92.70
420;DHT22;42600;54.408;13.016;2022-11-14T06:29:47;7.20;92.70
420;DHT22;42600;54.408;13.016;2022-11-14T06:32:14;7.20;92.70
420;DHT22;42600;54.408;13.016;2022-11-14T06:34:40;7.20;92.70
420;DHT22;42600;54.408;13.016;2022-11-14T06:37:07;7.20;92.70
420;DHT22;42600;54.408;13.016;2022-11-14T06:39:35;7.20;92.70
420;DHT22;42600;54.408;13.016;2022-11-14T06:42:02;7.10;92.70
420;DHT22;42600;54.408;13.016;2022-11-14T06:44:28;7.20;92.70
420;DHT22;42600;54.408;13.016;2022-11-14T06:46:55;7.20;92.70
420;DHT22;42600;54.408;13.016;2022-11-14T06:49:22;7.20;92.70
420;DHT22;42600;54.408;13.016;2022-11-14T06:51:49;7.20;92.70
420;DHT22;42600;54.408;13.016;2022-11-14T06:54:16;7.20;92.70
420;DHT22;42600;54.408;13.016;2022-11-14T06:56:44;7.20;92.70
420;DHT22;42600;54.408;13.016;2022-11-14T06:59:10;7.20;92.70
420;DHT22;42600;54.408;13.016;2022-11-14T07:01:37;7.20;92.70
420;DHT22;42600;54.408;13.016;2022-11-14T07:04:04;7.20;92.70
420;DHT22;42600;54.408;13.016;2022-11-14T07:06:30;7.20;92.70
420;DHT22;42600;54.408;13.016;2022-11-14T07:08:57;7.20;92.70
420;DHT22;42600;54.408;13.016;2022-11-14T07:11:26;7.20;92.70
420;DHT22;42600;54.408;13.016;2022-11-14T07:13:56;7.20;92.70
420;DHT22;42600;54.408;13.016;2022-11-14T07:16:24;7.20;92.70
420;DHT22;42600;54.408;13.016;2022-11-14T07:18:53;7.20;92.70
420;DHT22;42600;54.408;13.016;2022-11-14T07:21:20;7.30;92.70
420;DHT22;42600;54.408;13.016;2022-11-14T07:23:47;7.30;92.70
420;DHT22;42600;54.408;13.016;2022-11-14T07:26:13;7.30;92.70
420;DHT22;42600;54.408;13.016;2022-11-14T07:28:41;7.30;92.70
420;DHT22;42600;54.408;13.016;2022-11-14T07:31:12;7.30;92.70
420;DHT22;42600;54.408;13.016;2022-11-14T07:33:40;7.30;92.70
420;DHT22;42600;54.408;13.016;2022-11-14T07:36:07;7.30;92.70
420;DHT22;42600;54.408;13.016;2022-11-14T07:38:35;7.30;92.70
420;DHT22;42600;54.408;13.016;2022-11-14T07:41:03;7.30;92.70
420;DHT22;42600;54.408;13.016;2022-11-14T07:43:30;7.30;92.70
420;DHT22;42600;54.408;13.016;2022-11-14T07:46:01;7.30;92.70
420;DHT22;42600;54.408;13.016;2022-11-14T07:48:29;7.30;92.70
420;DHT22;42600;54.408;13.016;2022-11-14T07:50:57;7.30;92.70
420;DHT22;42600;54.408;13.016;2022-11-14T07:53:25;7.40;92.70
420;DHT22;42600;54.408;13.016;2022-11-14T07:55:52;7.40;92.70
420;DHT22;42600;54.408;13.016;2022-11-14T07:58:19;7.40;92.70
420;DHT22;42600;54.408;13.016;2022-11-14T08:00:45;7.40;92.70
420;DHT22;42600;54.408;13.016;2022-11-14T08:03:12;7.40;92.70
420;DHT22;42600;54.408;13.016;2022-11-14T08:05:40;7.40;92.70
420;DHT22;42600;54.408;13.016;2022-11-14T08:08:06;7.40;92.70
420;DHT22;42600;54.408;13.016;2022-11-14T08:10:33;7.30;92.70
420;DHT22;42600;54.408;13.016;2022-11-14T08:13:01;7.40;92.70
420;DHT22;42600;54.408;13.016;2022-11-14T08:15:28;7.40;92.70
420;DHT22;42600;54.408;13.016;2022-11-14T08:17:56;7.40;92.70
420;DHT22;42600;54.408;13.016;2022-11-14T08:20:24;7.50;92.70
420;DHT22;42600;54.408;13.016;2022-11-14T08:22:52;7.50;92.70
420;DHT22;42600;54.408;13.016;2022-11-14T08:25:19;7.50;92.70
420;DHT22;42600;54.408;13.016;2022-11-14T08:27:46;7.50;92.70
420;DHT22;42600;54.408;13.016;2022-11-14T08:30:13;7.50;92.70
420;DHT22;42600;54.408;13.016;2022-11-14T08:32:39;7.50;92.70
420;DHT22;42600;54.408;13.016;2022-11-14T08:35:06;7.50;92.70
420;DHT22;42600;54.408;13.016;2022-11-14T08:37:33;7.50;92.70
420;DHT22;42600;54.408;13.016;2022-11-14T08:40:01;7.50;92.70
420;DHT22;42600;54.408;13.016;2022-11-14T08:42:28;7.50;92.70
420;DHT22;42600;54.408;13.016;2022-11-14T08:44:55;7.50;92.70
420;DHT22;42600;54.408;13.016;2022-11-14T08:47:22;7.50;92.70
420;DHT22;42600;54.408;13.016;2022-11-14T08:49:48;7.50;92.70
420;DHT22;42600;54.408;13.016;2022-11-14T08:52:15;7.50;92.70
420;DHT22;42600;54.408;13.016;2022-11-14T08:54:42;7.60;92.70
420;DHT22;42600;54.408;13.016;2022-11-14T08:57:10;7.60;92.70
420;DHT22;42600;54.408;13.016;2022-11-14T08:59:39;7.60;92.70
420;DHT22;42600;54.408;13.016;2022-11-14T09:02:08;7.60;92.70
420;DHT22;42600;54.408;13.016;2022-11-14T09:04:34;7.70;92.70
420;DHT22;42600;54.408;13.016;2022-11-14T09:07:01;7.70;92.70
420;DHT22;42600;54.408;13.016;2022-11-14T09:09:28;7.70;92.70
420;DHT22;42600;54.408;13.016;2022-11-14T09:11:54;7.70;92.70
420;DHT22;42600;54.408;13.016;2022-11-14T09:14:22;7.70;92.70
420;DHT22;42600;54.408;13.016;2022-11-14T09:16:49;7.80;92.70
420;DHT22;42600;54.408;13.016;2022-11-14T09:19:15;7.80;92.70
420;DHT22;42600;54.408;13.016;2022-11-14T09:21:42;7.80;92.70
420;DHT22;42600;54.408;13.016;2022-11-14T09:24:08;7.80;92.70
420;DHT22;42600;54.408;13.016;2022-11-14T09:26:35;7.80;92.70
420;DHT22;42600;54.408;13.016;2022-11-14T09:29:02;7.80;92.70
420;DHT22;42600;54.408;13.016;2022-11-14T09:31:32;7.80;92.70
420;DHT22;42600;54.408;13.016;2022-11-14T09:33:58;7.80;92.70
420;DHT22;42600;54.408;13.016;2022-11-14T09:36:25;7.90;92.70
420;DHT22;42600;54.408;13.016;2022-11-14T09:38:52;7.90;92.70
420;DHT22;42600;54.408;13.016;2022-11-14T09:41:23;7.90;92.70
420;DHT22;42600;54.408;13.016;2022-11-14T09:44:15;7.90;92.70
420;DHT22;42600;54.408;13.016;2022-11-14T09:46:49;7.90;92.70
420;DHT22;42600;54.408;13.016;2022-11-14T09:49:25;7.80;92.70
420;DHT22;42600;54.408;13.016;2022-11-14T09:51:58;7.90;92.70
420;DHT22;42600;54.408;13.016;2022-11-14T09:54:28;7.90;92.70
420;DHT22;42600;54.408;13.016;2022-11-14T09:57:00;7.90;92.70
420;DHT22;42600;54.408;13.016;2022-11-14T09:59:26;7.90;92.70
420;DHT22;42600;54.408;13.016;2022-11-14T10:02:00;8.00;92.70
420;DHT22;42600;54.408;13.016;2022-11-14T10:04:42;8.00;92.70
420;DHT22;42600;54.408;13.016;2022-11-14T10:07:22;8.00;92.70
420;DHT22;42600;54.408;13.016;2022-11-14T10:09:59;7.90;92.70
420;DHT22;42600;54.408;13.016;2022-11-14T10:12:36;7.90;92.70
420;DHT22;42600;54.408;13.016;2022-11-14T10:15:12;7.90;92.70
420;DHT22;42600;54.408;13.016;2022-11-14T10:17:57;7.80;92.70
420;DHT22;42600;54.408;13.016;2022-11-14T10:20:32;7.80;92.70
420;DHT22;42600;54.408;13.016;2022-11-14T10:23:11;7.90;92.70
420;DHT22;42600;54.408;13.016;2022-11-14T10:25:50;7.90;92.70
420;DHT22;42600;54.408;13.016;2022-11-14T10:28:30;7.80;92.70
420;DHT22;42600;54.408;13.016;2022-11-14T10:31:04;7.80;92.70
420;DHT22;42600;54.408;13.016;2022-11-14T10:33:41;7.80;92.70
420;DHT22;42600;54.408;13.016;2022-11-14T10:36:16;7.80;92.70
420;DHT22;42600;54.408;13.016;2022-11-14T10:38:48;7.80;92.70
420;DHT22;42600;54.408;13.016;2022-11-14T10:41:16;7.70;92.70
420;DHT22;42600;54.408;13.016;2022-11-14T10:43:45;7.70;92.70
420;DHT22;42600;54.408;13.016;2022-11-14T10:46:15;7.70;92.70
420;DHT22;42600;54.408;13.016;2022-11-14T10:48:45;7.70;92.70
420;DHT22;42600;54.408;13.016;2022-11-14T10:51:18;7.70;92.70
420;DHT22;42600;54.408;13.016;2022-11-14T10:53:50;7.70;92.70
420;DHT22;42600;54.408;13.016;2022-11-14T10:56:18;7.70;92.70
420;DHT22;42600;54.408;13.016;2022-11-14T10:58:45;7.70;92.70
420;DHT22;42600;54.408;13.016;2022-11-14T11:01:30;7.70;92.70
420;DHT22;42600;54.408;13.016;2022-11-14T11:04:10;7.70;92.70
420;DHT22;42600;54.408;13.016;2022-11-14T11:06:37;7.70;92.70
420;DHT22;42600;54.408;13.016;2022-11-14T11:09:07;7.60;92.70
420;DHT22;42600;54.408;13.016;2022-11-14T11:11:55;7.60;92.70
420;DHT22;42600;54.408;13.016;2022-11-14T11:14:22;7.60;92.70
420;DHT22;42600;54.408;13.016;2022-11-14T11:16:48;7.60;92.70
420;DHT22;42600;54.408;13.016;2022-11-14T11:19:24;7.60;92.70
420;DHT22;42600;54.408;13.016;2022-11-14T11:21:52;7.60;92.70
420;DHT22;42600;54.408;13.016;2022-11-14T11:24:39;7.60;92.70
420;DHT22;42600;54.408;13.016;2022-11-14T11:27:20;7.60;92.70
420;DHT22;42600;54.408;13.016;2022-11-14T11:30:03;7.70;92.70
420;DHT22;42600;54.408;13.016;2022-11-14T11:32:30;7.70;92.70
420;DHT22;42600;54.408;13.016;2022-11-14T11:35:00;7.70;92.70
420;DHT22;42600;54.408;13.016;2022-11-14T11:37:29;7.80;92.70
420;DHT22;42600;54.408;13.016;2022-11-14T11:40:01;7.80;92.70
420;DHT22;42600;54.408;13.016;2022-11-14T11:42:34;7.90;92.70
420;DHT22;42600;54.408;13.016;2022-11-14T11:45:04;8.00;92.70
420;DHT22;42600;54.408;13.016;2022-11-14T11:47:33;8.00;92.70
420;DHT22;42600;54.408;13.016;2022-11-14T11:50:03;8.00;92.70
420;DHT22;42600;54.408;13.016;2022-11-14T11:52:33;8.10;92.70
420;DHT22;42600;54.408;13.016;2022-11-14T11:55:12;8.10;92.70
420;DHT22;42600;54.408;13.016;2022-11-14T11:57:43;8.10;92.70
420;DHT22;42600;54.408;13.016;2022-11-14T12:00:15;8.10;92.70
420;DHT22;42600;54.408;13.016;2022-11-14T12:02:45;8.00;92.70
420;DHT22;42600;54.408;13.016;2022-11-14T12:05:15;8.10;92.70
420;DHT22;42600;54.408;13.016;2022-11-14T12:07:47;8.10;92.70
420;DHT22;42600;54.408;13.016;2022-11-14T12:10:20;8.10;92.70
420;DHT22;42600;54.408;13.016;2022-11-14T12:16:00;8.20;92.70
420;DHT22;42600;54.408;13.016;2022-11-14T12:18:46;8.20;92.70
420;DHT22;42600;54.408;13.016;2022-11-14T12:21:30;8.20;92.70
420;DHT22;42600;54.408;13.016;2022-11-14T12:24:23;8.20;92.70
420;DHT22;42600;54.408;13.016;2022-11-14T12:27:07;8.20;92.70
420;DHT22;42600;54.408;13.016;2022-11-14T12:29:53;8.30;92.70
420;DHT22;42600;54.408;13.016;2022-11-14T12:32:28;8.30;92.70
420;DHT22;42600;54.408;13.016;2022-11-14T12:34:56;8.30;92.70
420;DHT22;42600;54.408;13.016;2022-11-14T12:37:31;8.20;92.70
420;DHT22;42600;54.408;13.016;2022-11-14T12:40:00;8.20;92.70
420;DHT22;42600;54.408;13.016;2022-11-14T12:42:27;8.30;92.70
420;DHT22;42600;54.408;13.016;2022-11-14T12:44:54;8.30;92.70
420;DHT22;42600;54.408;13.016;2022-11-14T12:47:22;8.40;92.70
420;DHT22;42600;54.408;13.016;2022-11-14T12:52:49;8.30;92.70
420;DHT22;42600;54.408;13.016;2022-11-14T12:55:53;8.30;92.70
420;DHT22;42600;54.408;13.016;2022-11-14T12:58:33;8.30;92.70
420;DHT22;42600;54.408;13.016;2022-11-14T13:01:23;8.20;92.70
420;DHT22;42600;54.408;13.016;2022-11-14T13:04:12;8.30;92.70
420;DHT22;42600;54.408;13.016;2022-11-14T13:09:31;8.20;92.70
420;DHT22;42600;54.408;13.016;2022-11-14T13:12:23;8.30;92.70
420;DHT22;42600;54.408;13.016;2022-11-14T13:15:27;8.40;92.70
420;DHT22;42600;54.408;13.016;2022-11-14T13:18:19;8.40;92.70
420;DHT22;42600;54.408;13.016;2022-11-14T13:21:05;8.40;92.70
420;DHT22;42600;54.408;13.016;2022-11-14T13:23:54;8.40;92.70
420;DHT22;42600;54.408;13.016;2022-11-14T13:26:48;8.40;92.70
420;DHT22;42600;54.408;13.016;2022-11-14T13:35:51;8.40;92.70
420;DHT22;42600;54.408;13.016;2022-11-14T13:44:59;8.40;92.70
420;DHT22;42600;54.408;13.016;2022-11-14T13:47:55;8.40;92.70
420;DHT22;42600;54.408;13.016;2022-11-14T13:50:25;8.40;92.70
420;DHT22;42600;54.408;13.016;2022-11-14T13:52:54;8.40;92.70
420;DHT22;42600;54.408;13.016;2022-11-14T13:55:25;8.30;92.70
420;DHT22;42600;54.408;13.016;2022-11-14T13:58:06;8.30;92.70
420;DHT22;42600;54.408;13.016;2022-11-14T14:00:56;8.30;92.70
420;DHT22;42600;54.408;13.016;2022-11-14T14:03:35;8.30;92.70
420;DHT22;42600;54.408;13.016;2022-11-14T14:06:19;8.30;92.70
420;DHT22;42600;54.408;13.016;2022-11-14T14:09:02;8.30;92.70
420;DHT22;42600;54.408;13.016;2022-11-14T14:11:41;8.40;92.70
420;DHT22;42600;54.408;13.016;2022-11-14T14:14:22;8.30;92.70
420;DHT22;42600;54.408;13.016;2022-11-14T14:16:57;8.40;92.70
420;DHT22;42600;54.408;13.016;2022-11-14T14:19:35;8.30;92.70
420;DHT22;42600;54.408;13.016;2022-11-14T14:22:07;8.30;92.70
420;DHT22;42600;54.408;13.016;2022-11-14T14:24:44;8.30;92.70
420;DHT22;42600;54.408;13.016;2022-11-14T14:27:23;8.30;92.70
420;DHT22;42600;54.408;13.016;2022-11-14T14:29:59;8.30;92.70
420;DHT22;42600;54.408;13.016;2022-11-14T14:32:28;8.30;92.70
420;DHT22;42600;54.408;13.016;2022-11-14T14:34:55;8.30;92.70
420;DHT22;42600;54.408;13.016;2022-11-14T14:37:26;8.30;92.70
420;DHT22;42600;54.408;13.016;2022-11-14T14:39:57;8.30;92.70
420;DHT22;42600;54.408;13.016;2022-11-14T14:42:24;8.30;92.70
420;DHT22;42600;54.408;13.016;2022-11-14T14:44:51;8.30;92.70
420;DHT22;42600;54.408;13.016;2022-11-14T14:47:33;8.30;92.70
420;DHT22;42600;54.408;13.016;2022-11-14T14:50:03;8.30;92.70
420;DHT22;42600;54.408;13.016;2022-11-14T14:52:31;8.30;92.70
420;DHT22;42600;54.408;13.016;2022-11-14T14:54:58;8.30;92.70
420;DHT22;42600;54.408;13.016;2022-11-14T14:57:27;8.30;92.70
420;DHT22;42600;54.408;13.016;2022-11-14T15:00:02;8.30;92.70
420;DHT22;42600;54.408;13.016;2022-11-14T15:02:29;8.30;92.70
420;DHT22;42600;54.408;13.016;2022-11-14T15:04:58;8.20;92.70
420;DHT22;42600;54.408;13.016;2022-11-14T15:07:27;8.20;92.70
420;DHT22;42600;54.408;13.016;2022-11-14T15:09:55;8.20;92.70
420;DHT22;42600;54.408;13.016;2022-11-14T15:12:24;8.20;92.70
420;DHT22;42600;54.408;13.016;2022-11-14T15:14:52;8.20;92.70
420;DHT22;42600;54.408;13.016;2022-11-14T15:17:20;8.20;92.70
420;DHT22;42600;54.408;13.016;2022-11-14T15:19:49;8.20;92.70
420;DHT22;42600;54.408;13.016;2022-11-14T15:22:23;8.20;92.70
420;DHT22;42600;54.408;13.016;2022-11-14T15:25:16;8.20;92.70
420;DHT22;42600;54.408;13.016;2022-11-14T15:27:46;8.10;92.70
420;DHT22;42600;54.408;13.016;2022-11-14T15:30:20;8.20;92.70
420;DHT22;42600;54.408;13.016;2022-11-14T15:32:48;8.10;92.70
420;DHT22;42600;54.408;13.016;2022-11-14T15:35:25;8.10;92.70
420;DHT22;42600;54.408;13.016;2022-11-14T15:38:17;8.10;92.70
420;DHT22;42600;54.408;13.016;2022-11-14T15:41:18;8.10;92.70
420;DHT22;42600;54.408;13.016;2022-11-14T15:43:47;8.10;92.70
420;DHT22;42600;54.408;13.016;2022-11-14T15:46:26;8.10;92.70
420;DHT22;42600;54.408;13.016;2022-11-14T15:48:54;8.10;92.70
420;DHT22;42600;54.408;13.016;2022-11-14T15:51:36;8.10;92.70
420;DHT22;42600;54.408;13.016;2022-11-14T15:54:03;8.10;92.70
420;DHT22;42600;54.408;13.016;2022-11-14T15:56:31;8.10;92.70
420;DHT22;42600;54.408;13.016;2022-11-14T15:58:58;8.10;92.70
420;DHT22;42600;54.408;13.016;2022-11-14T16:01:24;8.10;92.70
420;DHT22;42600;54.408;13.016;2022-11-14T16:03:51;8.10;92.70
420;DHT22;42600;54.408;13.016;2022-11-14T16:06:17;8.10;92.70
420;DHT22;42600;54.408;13.016;2022-11-14T16:08:44;8.10;92.70
420;DHT22;42600;54.408;13.016;2022-11-14T16:11:10;8.00;92.70
420;DHT22;42600;54.408;13.016;2022-11-14T16:13:39;8.00;92.70
420;DHT22;42600;54.408;13.016;2022-11-14T16:16:07;8.00;92.70
420;DHT22;42600;54.408;13.016;2022-11-14T16:18:33;8.00;92.70
420;DHT22;42600;54.408;13.016;2022-11-14T16:21:00;8.00;92.70
420;DHT22;42600;54.408;13.016;2022-11-14T16:23:26;8.00;92.70
420;DHT22;42600;54.408;13.016;2022-11-14T16:25:53;8.00;92.70
420;DHT22;42600;54.408;13.016;2022-11-14T16:28:19;7.90;92.70
420;DHT22;42600;54.408;13.016;2022-11-14T16:30:47;7.90;92.70
420;DHT22;42600;54.408;13.016;2022-11-14T16:33:14;7.90;92.70
420;DHT22;42600;54.408;13.016;2022-11-14T16:35:40;7.90;92.70
420;DHT22;42600;54.408;13.016;2022-11-14T16:38:09;7.90;92.70
420;DHT22;42600;54.408;13.016;2022-11-14T16:40:42;7.90;92.70